sensor_id;sensor_type;location;lat;lon;timestamp;pressure;altitude;pressure_sealevel;temperature;humidity
41947;BME280;27638;42.184;24.848;2023-07-31T00:01:59;99191.44;;;26.73;42.43
41947;BME280;27638;42.184;24.848;2023-07-31T00:04:25;99174.19;;;26.49;42.57
41947;BME280;27638;42.184;24.848;2023-07-31T00:06:50;99192.66;;;26.47;43.04
41947;BME280;27638;42.184;24.848;2023-07-31T00:09:16;99195.16;;;26.38;43.05
41947;BME280;27638;42.184;24.848;2023-07-31T00:11:41;99197.06;;;26.32;43.86
41947;BME280;27638;42.184;24.848;2023-07-31T00:14:07;99193.28;;;26.23;43.55
41947;BME280;27638;42.184;24.848;2023-07-31T00:16:32;99195.19;;;26.23;44.13
41947;BME280;27638;42.184;24.848;2023-07-31T00:18:58;99197.91;;;26.23;44.12
41947;BME280;27638;42.184;24.848;2023-07-31T00:21:24;99200.34;;;26.24;44.24
41947;BME280;27638;42.184;24.848;2023-07-31T00:23:49;99199.78;;;26.27;44.35
41947;BME280;27638;42.184;24.848;2023-07-31T00:26:15;99200.63;;;26.18;43.92
41947;BME280;27638;42.184;24.848;2023-07-31T00:28:41;99206.91;;;26.13;44.44
41947;BME280;27638;42.184;24.848;2023-07-31T00:31:06;99202.84;;;26.11;45.03
41947;BME280;27638;42.184;24.848;2023-07-31T00:33:34;99207.44;;;26.10;45.01
41947;BME280;27638;42.184;24.848;2023-07-31T00:35:59;99203.91;;;26.15;44.23
41947;BME280;27638;42.184;24.848;2023-07-31T00:38:25;99207.44;;;26.15;44.69
41947;BME280;27638;42.184;24.848;2023-07-31T00:40:50;99214.22;;;26.13;45.03
41947;BME280;27638;42.184;24.848;2023-07-31T00:43:16;99218.84;;;26.07;44.70
41947;BME280;27638;42.184;24.848;2023-07-31T00:45:41;99216.41;;;26.05;44.82
41947;BME280;27638;42.184;24.848;2023-07-31T00:48:07;99209.09;;;26.06;44.54
41947;BME280;27638;42.184;24.848;2023-07-31T00:50:34;99207.19;;;26.06;44.76
41947;BME280;27638;42.184;24.848;2023-07-31T00:53:00;99208.28;;;26.05;45.14
41947;BME280;27638;42.184;24.848;2023-07-31T00:55:26;99204.19;;;26.13;44.96
41947;BME280;27638;42.184;24.848;2023-07-31T00:57:52;99207.69;;;26.19;44.87
41947;BME280;27638;42.184;24.848;2023-07-31T01:00:19;99209.88;;;26.12;45.22
41947;BME280;27638;42.184;24.848;2023-07-31T01:02:44;99216.94;;;26.13;45.15
41947;BME280;27638;42.184;24.848;2023-07-31T01:05:10;99220.19;;;26.09;45.60
41947;BME280;27638;42.184;24.848;2023-07-31T01:07:52;99223.72;;;26.10;45.80
41947;BME280;27638;42.184;24.848;2023-07-31T01:10:47;99217.22;;;26.11;45.23
41947;BME280;27638;42.184;24.848;2023-07-31T01:13:14;99205.00;;;26.08;44.93
41947;BME280;27638;42.184;24.848;2023-07-31T01:15:40;99209.91;;;26.06;45.43
41947;BME280;27638;42.184;24.848;2023-07-31T01:18:06;99213.41;;;26.12;45.27
41947;BME280;27638;42.184;24.848;2023-07-31T01:20:31;99216.13;;;26.12;45.30
41947;BME280;27638;42.184;24.848;2023-07-31T01:23:26;99224.81;;;26.14;45.60
41947;BME280;27638;42.184;24.848;2023-07-31T01:26:16;99228.06;;;26.11;45.79
41947;BME280;27638;42.184;24.848;2023-07-31T01:29:00;99218.84;;;26.07;45.86
41947;BME280;27638;42.184;24.848;2023-07-31T01:31:29;99219.38;;;26.09;45.36
41947;BME280;27638;42.184;24.848;2023-07-31T01:33:58;99217.75;;;26.08;45.62
41947;BME280;27638;42.184;24.848;2023-07-31T01:36:25;99217.22;;;26.11;46.25
41947;BME280;27638;42.184;24.848;2023-07-31T01:38:50;99222.66;;;26.06;46.29
41947;BME280;27638;42.184;24.848;2023-07-31T01:41:19;99219.69;;;26.02;46.19
41947;BME280;27638;42.184;24.848;2023-07-31T01:43:47;99227.28;;;26.05;45.99
41947;BME280;27638;42.184;24.848;2023-07-31T01:46:13;99234.34;;;26.01;46.80
41947;BME280;27638;42.184;24.848;2023-07-31T01:48:39;99234.34;;;25.81;47.39
41947;BME280;27638;42.184;24.848;2023-07-31T01:51:04;99227.06;;;25.66;47.57
41947;BME280;27638;42.184;24.848;2023-07-31T01:53:31;99225.97;;;25.67;47.48
41947;BME280;27638;42.184;24.848;2023-07-31T01:55:57;99227.03;;;25.56;47.34
41947;BME280;27638;42.184;24.848;2023-07-31T01:58:22;99230.03;;;25.39;47.62
41947;BME280;27638;42.184;24.848;2023-07-31T02:00:48;99225.41;;;25.30;48.24
41947;BME280;27638;42.184;24.848;2023-07-31T02:03:13;99230.03;;;25.19;48.03
41947;BME280;27638;42.184;24.848;2023-07-31T02:05:45;99220.81;;;25.20;48.04
41947;BME280;27638;42.184;24.848;2023-07-31T02:08:11;99227.31;;;25.19;48.26
41947;BME280;27638;42.184;24.848;2023-07-31T02:10:37;99228.94;;;25.15;48.34
41947;BME280;27638;42.184;24.848;2023-07-31T02:13:02;99232.19;;;25.17;48.52
41947;BME280;27638;42.184;24.848;2023-07-31T02:15:29;99229.22;;;25.24;48.06
41947;BME280;27638;42.184;24.848;2023-07-31T02:17:55;99232.19;;;25.27;47.73
41947;BME280;27638;42.184;24.848;2023-07-31T02:20:21;99230.28;;;25.38;47.80
41947;BME280;27638;42.184;24.848;2023-07-31T02:22:46;99237.59;;;25.48;47.03
41947;BME280;27638;42.184;24.848;2023-07-31T02:25:12;99238.16;;;25.50;47.55
41947;BME280;27638;42.184;24.848;2023-07-31T02:27:37;99233.53;;;25.55;47.76
41947;BME280;27638;42.184;24.848;2023-07-31T02:30:03;99244.91;;;25.62;47.29
41947;BME280;27638;42.184;24.848;2023-07-31T02:32:29;99234.88;;;25.63;47.41
41947;BME280;27638;42.184;24.848;2023-07-31T02:34:54;99237.34;;;25.69;47.33
41947;BME280;27638;42.184;24.848;2023-07-31T02:37:20;99231.09;;;25.38;47.95
41947;BME280;27638;42.184;24.848;2023-07-31T02:39:45;99215.94;;;25.17;49.01
41947;BME280;27638;42.184;24.848;2023-07-31T02:42:11;99216.47;;;25.14;49.14
41947;BME280;27638;42.184;24.848;2023-07-31T02:44:36;99221.88;;;25.24;48.81
41947;BME280;27638;42.184;24.848;2023-07-31T02:47:02;99223.25;;;25.32;48.28
41947;BME280;27638;42.184;24.848;2023-07-31T02:49:28;99225.97;;;25.37;48.14
41947;BME280;27638;42.184;24.848;2023-07-31T02:51:54;99232.72;;;25.44;47.96
41947;BME280;27638;42.184;24.848;2023-07-31T02:54:19;99227.56;;;25.53;48.41
41947;BME280;27638;42.184;24.848;2023-07-31T02:56:47;99219.44;;;25.58;48.37
41947;BME280;27638;42.184;24.848;2023-07-31T02:59:12;99210.22;;;25.59;47.63
41947;BME280;27638;42.184;24.848;2023-07-31T03:01:38;99215.63;;;25.59;47.78
41947;BME280;27638;42.184;24.848;2023-07-31T03:04:04;99213.72;;;25.65;47.53
41947;BME280;27638;42.184;24.848;2023-07-31T03:06:29;99205.88;;;25.63;47.90
41947;BME280;27638;42.184;24.848;2023-07-31T03:08:55;99203.72;;;25.65;47.59
41947;BME280;27638;42.184;24.848;2023-07-31T03:11:20;99204.25;;;25.62;47.88
41947;BME280;27638;42.184;24.848;2023-07-31T03:13:46;99209.41;;;25.59;48.12
41947;BME280;27638;42.184;24.848;2023-07-31T03:16:11;99206.44;;;25.55;48.41
41947;BME280;27638;42.184;24.848;2023-07-31T03:18:37;99208.59;;;25.58;48.62
41947;BME280;27638;42.184;24.848;2023-07-31T03:21:04;99205.59;;;25.60;49.06
41947;BME280;27638;42.184;24.848;2023-07-31T03:23:29;99211.28;;;25.63;49.19
41947;BME280;27638;42.184;24.848;2023-07-31T03:25:59;99218.91;;;25.56;49.97
41947;BME280;27638;42.184;24.848;2023-07-31T03:28:25;99220.25;;;25.54;53.14
41947;BME280;27638;42.184;24.848;2023-07-31T03:30:51;99229.75;;;25.61;60.10
41947;BME280;27638;42.184;24.848;2023-07-31T03:33:17;99227.56;;;25.53;63.88
41947;BME280;27638;42.184;24.848;2023-07-31T03:35:42;99229.47;;;25.48;68.40
41947;BME280;27638;42.184;24.848;2023-07-31T03:38:08;99239.78;;;25.40;73.42
41947;BME280;27638;42.184;24.848;2023-07-31T03:40:33;99237.31;;;25.13;77.09
41947;BME280;27638;42.184;24.848;2023-07-31T03:42:59;99246.72;;;24.96;80.50
41947;BME280;27638;42.184;24.848;2023-07-31T03:45:24;99239.22;;;25.03;82.93
41947;BME280;27638;42.184;24.848;2023-07-31T03:47:50;99245.09;;;24.95;86.16
41947;BME280;27638;42.184;24.848;2023-07-31T03:50:16;99250.22;;;24.81;88.67
41947;BME280;27638;42.184;24.848;2023-07-31T03:52:41;99245.84;;;24.65;89.70
41947;BME280;27638;42.184;24.848;2023-07-31T03:55:07;99257.38;;;24.40;95.02
41947;BME280;27638;42.184;24.848;2023-07-31T03:57:33;99261.75;;;24.51;95.80
41947;BME280;27638;42.184;24.848;2023-07-31T03:59:58;99263.94;;;24.59;96.30
41947;BME280;27638;42.184;24.848;2023-07-31T04:02:24;99264.94;;;24.38;95.85
41947;BME280;27638;42.184;24.848;2023-07-31T04:04:50;99261.97;;;24.39;97.09
41947;BME280;27638;42.184;24.848;2023-07-31T04:07:15;99266.31;;;24.40;97.69
41947;BME280;27638;42.184;24.848;2023-07-31T04:09:41;99264.78;;;24.12;98.54
41947;BME280;27638;42.184;24.848;2023-07-31T04:12:06;99267.59;;;24.28;98.49
41947;BME280;27638;42.184;24.848;2023-07-31T04:14:32;99285.56;;;24.07;99.79
41947;BME280;27638;42.184;24.848;2023-07-31T04:16:57;99287.25;;;24.18;100.00
41947;BME280;27638;42.184;24.848;2023-07-31T04:19:23;99289.75;;;24.25;100.00
41947;BME280;27638;42.184;24.848;2023-07-31T04:21:49;99292.19;;;24.26;100.00
41947;BME280;27638;42.184;24.848;2023-07-31T04:24:14;99292.53;;;24.35;100.00
41947;BME280;27638;42.184;24.848;2023-07-31T04:26:40;99293.91;;;24.37;100.00
41947;BME280;27638;42.184;24.848;2023-07-31T04:29:05;99296.34;;;24.39;100.00
41947;BME280;27638;42.184;24.848;2023-07-31T04:31:31;99295.03;;;24.46;100.00
41947;BME280;27638;42.184;24.848;2023-07-31T04:33:56;99301.53;;;24.50;100.00
41947;BME280;27638;42.184;24.848;2023-07-31T04:36:22;99304.56;;;24.59;99.46
41947;BME280;27638;42.184;24.848;2023-07-31T04:38:48;99308.06;;;24.60;100.00
41947;BME280;27638;42.184;24.848;2023-07-31T04:41:13;99310.00;;;24.69;99.11
41947;BME280;27638;42.184;24.848;2023-07-31T04:43:39;99310.03;;;24.74;98.17
41947;BME280;27638;42.184;24.848;2023-07-31T04:46:05;99320.09;;;24.84;96.69
41947;BME280;27638;42.184;24.848;2023-07-31T04:48:30;99313.34;;;24.92;95.54
41947;BME280;27638;42.184;24.848;2023-07-31T04:50:56;99316.41;;;25.05;94.50
41947;BME280;27638;42.184;24.848;2023-07-31T04:53:21;99314.53;;;25.16;93.83
41947;BME280;27638;42.184;24.848;2023-07-31T04:55:47;99316.72;;;25.24;93.63
41947;BME280;27638;42.184;24.848;2023-07-31T04:58:12;99309.97;;;25.32;92.42
41947;BME280;27638;42.184;24.848;2023-07-31T05:00:38;99312.34;;;25.08;93.31
41947;BME280;27638;42.184;24.848;2023-07-31T05:03:03;99304.25;;;25.13;93.19
41947;BME280;27638;42.184;24.848;2023-07-31T05:05:29;99296.66;;;25.20;92.02
41947;BME280;27638;42.184;24.848;2023-07-31T05:07:54;99311.59;;;25.28;91.84
41947;BME280;27638;42.184;24.848;2023-07-31T05:10:19;99301.28;;;25.35;93.23
41947;BME280;27638;42.184;24.848;2023-07-31T05:12:45;99307.00;;;25.43;94.44
41947;BME280;27638;42.184;24.848;2023-07-31T05:15:10;99314.56;;;25.36;94.61
41947;BME280;27638;42.184;24.848;2023-07-31T05:17:36;99314.84;;;25.25;94.22
41947;BME280;27638;42.184;24.848;2023-07-31T05:20:01;99316.19;;;25.22;95.07
41947;BME280;27638;42.184;24.848;2023-07-31T05:22:27;99318.75;;;24.97;96.13
41947;BME280;27638;42.184;24.848;2023-07-31T05:24:52;99319.38;;;25.04;97.19
41947;BME280;27638;42.184;24.848;2023-07-31T05:27:19;99322.66;;;25.06;96.89
41947;BME280;27638;42.184;24.848;2023-07-31T05:29:45;99319.13;;;25.10;97.36
41947;BME280;27638;42.184;24.848;2023-07-31T05:32:11;99328.91;;;25.22;96.94
41947;BME280;27638;42.184;24.848;2023-07-31T05:34:36;99325.16;;;25.33;96.03
41947;BME280;27638;42.184;24.848;2023-07-31T05:37:02;99322.97;;;25.35;96.04
41947;BME280;27638;42.184;24.848;2023-07-31T05:39:27;99327.06;;;25.42;95.41
41947;BME280;27638;42.184;24.848;2023-07-31T05:41:53;99328.66;;;25.33;95.50
41947;BME280;27638;42.184;24.848;2023-07-31T05:44:18;99328.66;;;25.33;94.88
41947;BME280;27638;42.184;24.848;2023-07-31T05:46:44;99328.09;;;25.21;94.44
41947;BME280;27638;42.184;24.848;2023-07-31T05:49:09;99322.72;;;25.41;92.89
41947;BME280;27638;42.184;24.848;2023-07-31T05:51:35;99333.84;;;25.55;93.58
41947;BME280;27638;42.184;24.848;2023-07-31T05:54:00;99325.44;;;25.62;93.28
41947;BME280;27638;42.184;24.848;2023-07-31T05:56:25;99327.88;;;25.63;90.23
41947;BME280;27638;42.184;24.848;2023-07-31T05:58:52;99330.63;;;25.78;90.24
41947;BME280;27638;42.184;24.848;2023-07-31T06:01:18;99329.81;;;25.83;89.68
41947;BME280;27638;42.184;24.848;2023-07-31T06:03:43;99328.72;;;25.89;90.11
41947;BME280;27638;42.184;24.848;2023-07-31T06:06:09;99331.44;;;25.94;89.60
41947;BME280;27638;42.184;24.848;2023-07-31T06:08:35;99330.34;;;25.95;88.00
41947;BME280;27638;42.184;24.848;2023-07-31T06:11:00;99329.28;;;26.06;86.94
41947;BME280;27638;42.184;24.848;2023-07-31T06:13:26;99328.16;;;26.28;85.54
41947;BME280;27638;42.184;24.848;2023-07-31T06:15:51;99331.97;;;26.27;84.39
41947;BME280;27638;42.184;24.848;2023-07-31T06:18:17;99329.53;;;26.20;82.49
41947;BME280;27638;42.184;24.848;2023-07-31T06:20:42;99328.69;;;26.40;81.50
41947;BME280;27638;42.184;24.848;2023-07-31T06:23:08;99330.84;;;26.53;82.12
41947;BME280;27638;42.184;24.848;2023-07-31T06:25:33;99329.78;;;26.44;80.29
41947;BME280;27638;42.184;24.848;2023-07-31T06:27:59;99323.81;;;26.42;79.39
41947;BME280;27638;42.184;24.848;2023-07-31T06:30:24;99330.28;;;26.51;76.51
41947;BME280;27638;42.184;24.848;2023-07-31T06:32:49;99322.38;;;26.65;76.98
41947;BME280;27638;42.184;24.848;2023-07-31T06:35:15;99329.28;;;27.01;76.56
41947;BME280;27638;42.184;24.848;2023-07-31T06:37:40;99321.34;;;27.20;73.59
41947;BME280;27638;42.184;24.848;2023-07-31T06:40:09;99328.44;;;27.60;71.70
41947;BME280;27638;42.184;24.848;2023-07-31T06:42:35;99336.81;;;27.98;71.28
41947;BME280;27638;42.184;24.848;2023-07-31T06:45:01;99327.06;;;28.26;68.20
41947;BME280;27638;42.184;24.848;2023-07-31T06:47:27;99329.34;;;28.43;66.78
41947;BME280;27638;42.184;24.848;2023-07-31T06:49:52;99314.16;;;28.37;65.10
41947;BME280;27638;42.184;24.848;2023-07-31T06:52:20;99317.41;;;28.63;64.98
41947;BME280;27638;42.184;24.848;2023-07-31T06:55:00;99323.78;;;28.77;63.66
41947;BME280;27638;42.184;24.848;2023-07-31T06:57:26;99320.88;;;28.92;63.58
41947;BME280;27638;42.184;24.848;2023-07-31T06:59:52;99318.34;;;29.19;62.52
41947;BME280;27638;42.184;24.848;2023-07-31T07:02:17;99320.84;;;29.16;61.89
41947;BME280;27638;42.184;24.848;2023-07-31T07:04:42;99323.38;;;29.50;58.91
41947;BME280;27638;42.184;24.848;2023-07-31T07:07:08;99323.59;;;29.53;58.75
41947;BME280;27638;42.184;24.848;2023-07-31T07:09:33;99310.06;;;29.62;59.51
41947;BME280;27638;42.184;24.848;2023-07-31T07:11:59;99311.47;;;29.92;58.61
41947;BME280;27638;42.184;24.848;2023-07-31T07:14:24;99315.19;;;29.82;57.19
41947;BME280;27638;42.184;24.848;2023-07-31T07:16:52;99326.50;;;30.08;56.05
41947;BME280;27638;42.184;24.848;2023-07-31T07:19:18;99323.91;;;30.17;55.40
41947;BME280;27638;42.184;24.848;2023-07-31T07:21:43;99310.13;;;30.08;53.57
41947;BME280;27638;42.184;24.848;2023-07-31T07:24:09;99312.75;;;30.13;56.25
41947;BME280;27638;42.184;24.848;2023-07-31T07:26:34;99312.81;;;30.41;55.31
41947;BME280;27638;42.184;24.848;2023-07-31T07:29:00;99309.91;;;30.65;55.02
41947;BME280;27638;42.184;24.848;2023-07-31T07:31:27;99308.78;;;30.79;53.66
41947;BME280;27638;42.184;24.848;2023-07-31T07:33:53;99309.00;;;30.69;52.77
41947;BME280;27638;42.184;24.848;2023-07-31T07:36:19;99300.34;;;30.90;51.75
41947;BME280;27638;42.184;24.848;2023-07-31T07:38:44;99301.94;;;31.04;52.20
41947;BME280;27638;42.184;24.848;2023-07-31T07:41:10;99305.09;;;31.25;51.08
41947;BME280;27638;42.184;24.848;2023-07-31T07:43:35;99298.69;;;31.30;50.49
41947;BME280;27638;42.184;24.848;2023-07-31T07:46:01;99305.28;;;31.29;50.95
41947;BME280;27638;42.184;24.848;2023-07-31T07:48:26;99298.69;;;31.52;50.61
41947;BME280;27638;42.184;24.848;2023-07-31T07:50:52;99295.72;;;31.62;49.38
41947;BME280;27638;42.184;24.848;2023-07-31T07:53:17;99299.44;;;31.66;49.15
41947;BME280;27638;42.184;24.848;2023-07-31T07:55:43;99294.84;;;31.75;48.54
41947;BME280;27638;42.184;24.848;2023-07-31T07:58:08;99298.91;;;31.78;48.85
41947;BME280;27638;42.184;24.848;2023-07-31T08:00:33;99297.50;;;31.89;47.69
41947;BME280;27638;42.184;24.848;2023-07-31T08:02:59;99300.00;;;31.99;48.93
41947;BME280;27638;42.184;24.848;2023-07-31T08:05:26;99302.09;;;32.02;48.46
41947;BME280;27638;42.184;24.848;2023-07-31T08:07:51;99298.78;;;31.83;48.10
41947;BME280;27638;42.184;24.848;2023-07-31T08:10:17;99298.75;;;31.61;47.21
41947;BME280;27638;42.184;24.848;2023-07-31T08:12:42;99295.41;;;31.41;48.04
41947;BME280;27638;42.184;24.848;2023-07-31T08:15:08;99286.25;;;31.46;48.13
41947;BME280;27638;42.184;24.848;2023-07-31T08:17:33;99285.56;;;31.85;48.62
41947;BME280;27638;42.184;24.848;2023-07-31T08:19:59;99288.31;;;32.16;46.09
41947;BME280;27638;42.184;24.848;2023-07-31T08:22:24;99283.28;;;32.32;45.85
41947;BME280;27638;42.184;24.848;2023-07-31T08:24:51;99284.63;;;32.21;44.54
41947;BME280;27638;42.184;24.848;2023-07-31T08:27:16;99281.88;;;32.21;46.22
41947;BME280;27638;42.184;24.848;2023-07-31T08:29:42;99279.88;;;32.26;43.54
41947;BME280;27638;42.184;24.848;2023-07-31T08:32:07;99280.78;;;31.91;45.09
41947;BME280;27638;42.184;24.848;2023-07-31T08:34:33;99277.50;;;31.80;45.85
41947;BME280;27638;42.184;24.848;2023-07-31T08:36:58;99276.75;;;31.88;45.59
41947;BME280;27638;42.184;24.848;2023-07-31T08:39:24;99273.34;;;32.22;44.36
41947;BME280;27638;42.184;24.848;2023-07-31T08:41:49;99271.13;;;32.24;43.43
41947;BME280;27638;42.184;24.848;2023-07-31T08:44:15;99276.38;;;32.43;44.18
41947;BME280;27638;42.184;24.848;2023-07-31T08:46:41;99269.59;;;32.41;41.62
41947;BME280;27638;42.184;24.848;2023-07-31T08:49:07;99262.69;;;32.52;43.73
41947;BME280;27638;42.184;24.848;2023-07-31T08:51:34;99265.75;;;32.42;42.92
41947;BME280;27638;42.184;24.848;2023-07-31T08:54:01;99271.50;;;32.31;42.85
41947;BME280;27638;42.184;24.848;2023-07-31T08:56:27;99272.16;;;32.28;42.05
41947;BME280;27638;42.184;24.848;2023-07-31T08:58:54;99271.22;;;32.42;43.93
41947;BME280;27638;42.184;24.848;2023-07-31T09:01:20;99280.06;;;32.38;42.44
41947;BME280;27638;42.184;24.848;2023-07-31T09:03:47;99275.75;;;32.15;44.77
41947;BME280;27638;42.184;24.848;2023-07-31T09:06:16;99275.06;;;31.79;45.77
41947;BME280;27638;42.184;24.848;2023-07-31T09:08:43;99272.88;;;31.67;45.43
41947;BME280;27638;42.184;24.848;2023-07-31T09:11:09;99272.94;;;31.53;46.38
41947;BME280;27638;42.184;24.848;2023-07-31T09:13:34;99270.66;;;31.47;46.27
41947;BME280;27638;42.184;24.848;2023-07-31T09:16:00;99270.63;;;31.69;45.35
41947;BME280;27638;42.184;24.848;2023-07-31T09:18:26;99276.41;;;31.67;45.39
41947;BME280;27638;42.184;24.848;2023-07-31T09:21:05;99273.28;;;31.16;45.43
41947;BME280;27638;42.184;24.848;2023-07-31T09:23:44;99272.97;;;31.03;45.42
41947;BME280;27638;42.184;24.848;2023-07-31T09:26:10;99264.59;;;31.00;47.38
41947;BME280;27638;42.184;24.848;2023-07-31T09:28:36;99266.59;;;31.08;47.01
41947;BME280;27638;42.184;24.848;2023-07-31T09:31:02;99272.44;;;31.29;46.71
41947;BME280;27638;42.184;24.848;2023-07-31T09:33:27;99268.41;;;31.26;46.31
41947;BME280;27638;42.184;24.848;2023-07-31T09:35:53;99260.41;;;31.30;45.68
41947;BME280;27638;42.184;24.848;2023-07-31T09:38:18;99258.53;;;31.39;46.01
41947;BME280;27638;42.184;24.848;2023-07-31T09:40:46;99266.53;;;31.58;44.73
41947;BME280;27638;42.184;24.848;2023-07-31T09:43:16;99256.47;;;31.08;51.00
41947;BME280;27638;42.184;24.848;2023-07-31T09:45:43;99257.56;;;30.16;54.17
41947;BME280;27638;42.184;24.848;2023-07-31T09:48:14;99258.06;;;29.72;55.62
41947;BME280;27638;42.184;24.848;2023-07-31T09:50:45;99250.81;;;29.81;55.95
41947;BME280;27638;42.184;24.848;2023-07-31T09:53:11;99252.94;;;29.84;55.78
41947;BME280;27638;42.184;24.848;2023-07-31T09:55:38;99264.66;;;29.85;56.72
41947;BME280;27638;42.184;24.848;2023-07-31T09:58:05;99261.66;;;30.00;55.12
41947;BME280;27638;42.184;24.848;2023-07-31T10:00:32;99259.47;;;30.02;54.88
41947;BME280;27638;42.184;24.848;2023-07-31T10:03:04;99255.06;;;29.87;53.92
41947;BME280;27638;42.184;24.848;2023-07-31T10:05:35;99255.75;;;29.79;53.83
41947;BME280;27638;42.184;24.848;2023-07-31T10:08:01;99251.28;;;29.70;53.02
41947;BME280;27638;42.184;24.848;2023-07-31T10:10:27;99248.56;;;29.70;53.34
41947;BME280;27638;42.184;24.848;2023-07-31T10:12:54;99250.28;;;29.66;52.73
41947;BME280;27638;42.184;24.848;2023-07-31T10:15:21;99248.25;;;29.71;52.71
41947;BME280;27638;42.184;24.848;2023-07-31T10:17:48;99246.75;;;29.79;52.00
41947;BME280;27638;42.184;24.848;2023-07-31T10:20:14;99243.81;;;29.75;53.55
41947;BME280;27638;42.184;24.848;2023-07-31T10:22:44;99239.59;;;29.97;52.61
41947;BME280;27638;42.184;24.848;2023-07-31T10:25:11;99241.22;;;29.84;54.82
41947;BME280;27638;42.184;24.848;2023-07-31T10:27:38;99233.72;;;29.90;53.10
41947;BME280;27638;42.184;24.848;2023-07-31T10:30:06;99224.06;;;30.11;52.55
41947;BME280;27638;42.184;24.848;2023-07-31T10:32:33;99219.63;;;30.01;49.92
41947;BME280;27638;42.184;24.848;2023-07-31T10:35:01;99203.66;;;30.22;50.51
41947;BME280;27638;42.184;24.848;2023-07-31T10:37:31;99203.63;;;30.49;51.47
41947;BME280;27638;42.184;24.848;2023-07-31T10:43:05;99207.69;;;30.38;51.93
41947;BME280;27638;42.184;24.848;2023-07-31T10:45:36;99195.56;;;30.44;49.47
41947;BME280;27638;42.184;24.848;2023-07-31T10:48:07;99192.94;;;30.26;49.26
41947;BME280;27638;42.184;24.848;2023-07-31T10:50:37;99194.25;;;30.14;50.00
41947;BME280;27638;42.184;24.848;2023-07-31T10:53:03;99195.56;;;30.31;48.02
41947;BME280;27638;42.184;24.848;2023-07-31T10:55:40;99190.59;;;30.46;47.59
41947;BME280;27638;42.184;24.848;2023-07-31T10:58:08;99187.63;;;30.57;48.93
41947;BME280;27638;42.184;24.848;2023-07-31T11:00:37;99188.28;;;30.40;47.69
41947;BME280;27638;42.184;24.848;2023-07-31T11:06:12;99183.44;;;30.37;49.12
41947;BME280;27638;42.184;24.848;2023-07-31T11:08:42;99189.59;;;30.29;49.42
41947;BME280;27638;42.184;24.848;2023-07-31T11:11:10;99197.00;;;30.28;48.92
41947;BME280;27638;42.184;24.848;2023-07-31T11:13:39;99195.47;;;30.36;49.42
41947;BME280;27638;42.184;24.848;2023-07-31T11:16:05;99197.47;;;30.16;49.83
41947;BME280;27638;42.184;24.848;2023-07-31T11:18:31;99208.66;;;29.74;52.75
41947;BME280;27638;42.184;24.848;2023-07-31T11:20:56;99215.31;;;29.35;55.29
41947;BME280;27638;42.184;24.848;2023-07-31T11:23:22;99206.19;;;28.88;57.61
41947;BME280;27638;42.184;24.848;2023-07-31T11:25:49;99206.53;;;28.63;58.05
41947;BME280;27638;42.184;24.848;2023-07-31T11:28:16;99193.25;;;28.38;55.83
41947;BME280;27638;42.184;24.848;2023-07-31T11:30:43;99202.00;;;28.35;55.38
41947;BME280;27638;42.184;24.848;2023-07-31T11:33:12;99222.75;;;28.31;58.11
41947;BME280;27638;42.184;24.848;2023-07-31T11:35:46;99209.81;;;28.17;62.66
41947;BME280;27638;42.184;24.848;2023-07-31T11:38:21;99204.72;;;28.11;64.18
41947;BME280;27638;42.184;24.848;2023-07-31T11:40:48;99215.16;;;27.98;65.02
41947;BME280;27638;42.184;24.848;2023-07-31T11:43:13;99218.19;;;27.97;66.21
41947;BME280;27638;42.184;24.848;2023-07-31T11:45:45;99219.38;;;27.86;69.39
41947;BME280;27638;42.184;24.848;2023-07-31T11:50:47;99200.06;;;27.87;66.54
41947;BME280;27638;42.184;24.848;2023-07-31T11:53:15;99216.38;;;27.87;65.31
41947;BME280;27638;42.184;24.848;2023-07-31T11:55:42;99191.25;;;27.95;66.03
41947;BME280;27638;42.184;24.848;2023-07-31T11:58:08;99199.13;;;27.97;65.38
41947;BME280;27638;42.184;24.848;2023-07-31T12:00:33;99186.50;;;28.06;64.74
41947;BME280;27638;42.184;24.848;2023-07-31T12:02:59;99185.03;;;28.19;64.79
41947;BME280;27638;42.184;24.848;2023-07-31T12:05:25;99180.84;;;28.03;65.99
41947;BME280;27638;42.184;24.848;2023-07-31T12:07:53;99180.97;;;28.16;65.10
41947;BME280;27638;42.184;24.848;2023-07-31T12:10:28;99172.50;;;28.18;64.41
41947;BME280;27638;42.184;24.848;2023-07-31T12:15:42;99168.69;;;28.19;67.28
41947;BME280;27638;42.184;24.848;2023-07-31T12:20:42;99163.59;;;28.55;62.05
41947;BME280;27638;42.184;24.848;2023-07-31T12:23:19;99155.66;;;28.58;60.95
41947;BME280;27638;42.184;24.848;2023-07-31T12:26:00;99152.19;;;28.53;62.78
41947;BME280;27638;42.184;24.848;2023-07-31T12:28:25;99131.38;;;28.43;58.07
41947;BME280;27638;42.184;24.848;2023-07-31T12:30:51;99150.00;;;28.55;61.31
41947;BME280;27638;42.184;24.848;2023-07-31T12:33:18;99146.75;;;28.72;57.02
41947;BME280;27638;42.184;24.848;2023-07-31T12:35:45;99138.38;;;28.87;55.73
41947;BME280;27638;42.184;24.848;2023-07-31T12:38:12;99142.06;;;29.10;56.41
41947;BME280;27638;42.184;24.848;2023-07-31T12:40:39;99152.41;;;28.94;62.74
41947;BME280;27638;42.184;24.848;2023-07-31T12:43:06;99147.47;;;28.96;61.78
41947;BME280;27638;42.184;24.848;2023-07-31T12:45:32;99143.94;;;28.96;64.86
41947;BME280;27638;42.184;24.848;2023-07-31T12:48:01;99139.91;;;28.74;61.56
41947;BME280;27638;42.184;24.848;2023-07-31T12:50:27;99134.88;;;28.81;60.28
41947;BME280;27638;42.184;24.848;2023-07-31T12:52:56;99136.00;;;28.80;63.98
41947;BME280;27638;42.184;24.848;2023-07-31T12:55:22;99132.41;;;28.66;64.22
41947;BME280;27638;42.184;24.848;2023-07-31T12:57:48;99141.22;;;28.58;65.34
41947;BME280;27638;42.184;24.848;2023-07-31T13:00:14;99142.84;;;28.40;66.36
41947;BME280;27638;42.184;24.848;2023-07-31T13:02:39;99136.16;;;28.51;67.17